Scott City, MO

2:13 PM CDT on August 28, 2016 (GMT -0500)
Cape Girardeau Regional | | Change Station
Active Advisory: Special Statement

Elev 341 ft 37.23 °N, 89.57 °W | Updated 20 minutes ago

Clear
Clear
91 °F
Feels Like 98 °F
N
5
Wind Variable Wind from East

Today
High -- | Low -- °F
--% Chance of Precip.
Yesterday
High -- | Low -- °F
Precip. -- in
Pressure 30.12 in
Visibility 10.0 miles
Clouds Clear
Heat Index 98 °F
Dew Point 72 °F
Humidity 53%
Rainfall 0.00 in
Snow Depth Not available.
6:26 AM 7:31 PM
Waning Crescent, 14% visible
METAR KCGI 281853Z 08004KT 10SM CLR 33/22 A3012 RMK AO2 SLP197 T03280222
Pressure 30.12 in
Visibility 10.0 miles
Clouds Clear
Heat Index 98 °F
Dew Point 72 °F
Humidity 53%
Rainfall 0.00 in
Snow Depth Not available.
6:26 AM 7:31 PM
Waning Crescent, 14% visible
METAR KCGI 281853Z 08004KT 10SM CLR 33/22 A3012 RMK AO2 SLP197 T03280222

10-Day Weather Forecast

Almanac

Astronomy

Aug. 28, 2016 Rise Set
Actual Time
Civil Twilight
Nautical Twilight
Astronomical Twilight
Moon
Length of Visible Light
Length of Day
Tomorrow will be .
, % of the Moon is Illuminated

Today's Extremes

State Highs State Lows

Community

WunderPhotos

Upload Photos

1,935,660 photos uploaded!

WunderBlog® & News

Nearby

Air Quality

  Air Quality AQ Index Pollutant
Not available.

Snow Depth

Station Depth Elevation

Earthquake Activity

City Distance Mag. Time & Date
Minimum magnitude displayed is 2.5.

Coastal Water Temperatures

Place Temperature

Stations

Nearby Weather Stations

Station Location Temp. Windchill Dew Point Humidity Wind Precip. Elev Updated Type
                   

Watches & Warnings

Special Statement
Issued: 12:27 PM CDT Aug. 28, 2016 – National Weather Service

... Heat indices already up in the 100 to 105 range...

At noon CDT... many locations across the quad state region were
reporting heat indices near 100 degrees. A few locations like
Owensboro were up closer to 105. Readings in the 100 to 105 range
will become commonplace this afternoon. Those with outdoor plans
should take along plenty of non alcoholic beverage to keep
hydrated. Plan to take frequent breaks if engaging in any physical
activities.


Meffert